Time;durP1;ratioP1;P1;durP2;ratioP2;P2;SDS_P1;SDS_P2;PMS_P1;PMS_P2;Temp;Humidity;BMP_temperature;BMP_pressure;BME280_temperature;BME280_humidity;BME280_pressure;Samples;Min_cycle;Max_cycle;Signal;HPM_P1;HPM_P2
2023/05/16 05:42:05;;;;;;;12.85;11.60;;;13.30;99.90;;;;;;5071783;28;20593;-71
2023/05/16 05:44:30;;;;;;;13.80;12.50;;;13.20;99.90;;;;;;5069512;28;20599;-71
2023/05/16 05:46:56;;;;;;;16.50;11.75;;;13.20;99.90;;;;;;5070662;28;20197;-71
2023/05/16 05:49:26;;;;;;;12.35;11.15;;;13.30;99.90;;;;;;5070284;28;20181;-71
2023/05/16 05:51:52;;;;;;;11.85;10.65;;;13.30;99.90;;;;;;5069470;28;20173;-71
2023/05/16 05:54:18;;;;;;;11.57;10.38;;;13.40;99.90;;;;;;5070648;28;20181;-71
2023/05/16 05:56:44;;;;;;;11.60;10.13;;;13.20;99.90;;;;;;5069286;28;20288;-71
2023/05/16 05:59:09;;;;;;;12.25;10.15;;;13.10;99.90;;;;;;5070554;28;20186;-71
2023/05/16 06:01:35;;;;;;;11.57;10.50;;;13.00;99.90;;;;;;5070428;28;20166;-71
2023/05/16 06:04:01;;;;;;;10.80;9.80;;;12.90;99.90;;;;;;5070073;28;20178;-71
2023/05/16 06:06:28;;;;;;;10.68;9.77;;;13.00;99.90;;;;;;5069062;28;20193;-71
2023/05/16 06:08:53;;;;;;;10.32;9.32;;;12.90;99.90;;;;;;5069071;28;20222;-71
2023/05/16 06:11:20;;;;;;;11.25;10.15;;;12.80;99.90;;;;;;5069246;28;20619;-71
2023/05/16 06:13:46;;;;;;;10.35;9.45;;;12.90;99.90;;;;;;5069543;28;20201;-71
2023/05/16 06:16:11;;;;;;;11.52;10.43;;;12.90;99.90;;;;;;5069776;28;20193;-71
2023/05/16 06:18:37;;;;;;;11.43;10.43;;;12.90;99.90;;;;;;5069196;28;20205;-71
2023/05/16 06:21:03;;;;;;;11.10;10.18;;;12.90;99.90;;;;;;5069083;28;20177;-71
2023/05/16 06:23:28;;;;;;;11.82;10.55;;;12.90;99.90;;;;;;5068817;28;20173;-71
2023/05/16 06:25:54;;;;;;;11.38;10.32;;;12.90;99.90;;;;;;5068938;28;20200;-71
2023/05/16 06:28:19;;;;;;;12.35;10.52;;;12.80;99.90;;;;;;5069040;28;20181;-71
2023/05/16 06:30:46;;;;;;;13.15;10.10;;;12.80;99.90;;;;;;5069676;28;20208;-71
2023/05/16 06:33:13;;;;;;;11.13;10.10;;;12.70;99.90;;;;;;5068589;28;20173;-71
2023/05/16 06:35:39;;;;;;;10.25;9.25;;;12.70;99.90;;;;;;5069246;28;20224;-71
2023/05/16 06:38:05;;;;;;;12.25;10.40;;;12.80;99.90;;;;;;5068722;28;20227;-71
2023/05/16 06:40:30;;;;;;;10.07;9.07;;;12.80;99.90;;;;;;5068439;28;20201;-71
2023/05/16 06:42:57;;;;;;;10.25;9.35;;;12.90;99.90;;;;;;5068314;28;20178;-71
2023/05/16 06:45:23;;;;;;;10.90;9.43;;;12.80;99.90;;;;;;5069728;28;20170;-71
2023/05/16 06:47:48;;;;;;;10.20;9.05;;;12.90;99.90;;;;;;5068670;28;20207;-71
2023/05/16 06:50:14;;;;;;;9.80;8.90;;;13.00;99.90;;;;;;5068469;28;20206;-71
2023/05/16 06:52:40;;;;;;;9.52;8.73;;;13.10;99.90;;;;;;5059344;28;20320;-71
2023/05/16 06:55:07;;;;;;;10.38;9.32;;;13.20;99.90;;;;;;5056189;28;20167;-71
2023/05/16 06:57:32;;;;;;;11.05;10.05;;;13.10;99.90;;;;;;5055866;28;20198;-71
2023/05/16 06:59:58;;;;;;;11.07;10.07;;;13.10;99.90;;;;;;5054907;28;20197;-71
2023/05/16 07:02:23;;;;;;;10.77;9.77;;;13.10;99.90;;;;;;5054849;28;20217;-71
2023/05/16 07:04:49;;;;;;;10.27;9.38;;;13.10;99.90;;;;;;5055066;28;20182;-71
2023/05/16 07:07:14;;;;;;;10.57;9.65;;;13.10;99.90;;;;;;5055631;28;20209;-71
2023/05/16 07:09:40;;;;;;;11.20;10.10;;;13.10;99.90;;;;;;5054617;28;20231;-71
2023/05/16 07:12:06;;;;;;;10.65;9.65;;;13.10;99.90;;;;;;5055013;28;20170;-71
2023/05/16 07:14:31;;;;;;;12.02;10.50;;;13.20;99.90;;;;;;5055469;28;20174;-71
2023/05/16 07:16:57;;;;;;;10.48;9.52;;;13.30;99.90;;;;;;5056002;28;20198;-71
2023/05/16 07:19:22;;;;;;;11.23;10.18;;;13.30;99.90;;;;;;5054514;28;20192;-71
2023/05/16 07:21:48;;;;;;;10.95;9.82;;;13.30;99.90;;;;;;5054748;28;20641;-71
2023/05/16 07:24:14;;;;;;;11.50;10.40;;;13.30;99.90;;;;;;5054714;28;20186;-71
2023/05/16 07:26:39;;;;;;;11.95;10.85;;;13.30;99.90;;;;;;5054276;28;20255;-71
2023/05/16 07:29:05;;;;;;;12.00;10.75;;;13.30;99.90;;;;;;5054273;28;20212;-71
2023/05/16 07:31:31;;;;;;;11.95;10.80;;;13.30;99.90;;;;;;5056225;28;20233;-71
2023/05/16 07:33:56;;;;;;;13.05;11.70;;;13.50;99.90;;;;;;5054212;28;20644;-71
2023/05/16 07:36:22;;;;;;;11.98;10.88;;;13.70;99.80;;;;;;5054091;28;20251;-71
2023/05/16 07:38:47;;;;;;;12.48;11.00;;;14.00;98.90;;;;;;5054415;28;20171;-71
2023/05/16 07:41:13;;;;;;;12.00;10.80;;;14.40;98.70;;;;;;5053987;28;20247;-71
2023/05/16 07:43:38;;;;;;;14.50;10.57;;;14.70;98.20;;;;;;5055232;28;20244;-71
2023/05/16 07:46:04;;;;;;;10.25;9.02;;;14.70;97.60;;;;;;5055703;28;20202;-71
2023/05/16 07:48:30;;;;;;;10.43;9.43;;;14.70;97.60;;;;;;5054012;28;20185;-71
2023/05/16 07:50:55;;;;;;;9.43;8.45;;;14.70;97.30;;;;;;5053825;28;20205;-71
2023/05/16 07:53:21;;;;;;;9.27;8.38;;;14.30;97.70;;;;;;5053864;28;20712;-71
2023/05/16 07:55:48;;;;;;;9.68;8.63;;;14.20;98.00;;;;;;5055755;28;20197;-71
2023/05/16 07:58:14;;;;;;;10.00;9.00;;;14.00;98.20;;;;;;5054093;28;20178;-71
2023/05/16 08:00:39;;;;;;;13.00;8.90;;;14.10;98.60;;;;;;5053681;28;20179;-71
2023/05/16 08:03:05;;;;;;;9.55;8.50;;;14.10;98.40;;;;;;5053211;28;20250;-71
2023/05/16 08:05:31;;;;;;;8.35;7.55;;;14.40;98.40;;;;;;5053095;28;20208;-71
2023/05/16 08:07:57;;;;;;;12.25;8.23;;;14.70;97.60;;;;;;5053563;28;20181;-71
2023/05/16 08:10:23;;;;;;;13.40;7.40;;;14.70;97.10;;;;;;5053432;28;20216;-71
2023/05/16 08:12:48;;;;;;;7.65;6.57;;;14.70;96.90;;;;;;5053736;28;20190;-71
2023/05/16 08:15:14;;;;;;;7.68;6.20;;;14.70;96.80;;;;;;5053412;28;20181;-71
2023/05/16 08:17:40;;;;;;;11.32;6.28;;;14.80;96.80;;;;;;5054174;28;20285;-71
2023/05/16 08:20:06;;;;;;;6.75;6.13;;;14.90;96.60;;;;;;5053634;28;20181;-71
2023/05/16 08:22:32;;;;;;;8.82;5.72;;;15.00;96.20;;;;;;5053331;28;20201;-71
2023/05/16 08:24:59;;;;;;;6.07;5.47;;;15.30;96.10;;;;;;5053217;28;20212;-71
2023/05/16 08:27:25;;;;;;;6.97;5.90;;;15.30;95.70;;;;;;5053345;28;20221;-71
2023/05/16 08:29:51;;;;;;;6.47;5.88;;;15.20;95.70;;;;;;5053387;28;20182;-71
2023/05/16 08:32:16;;;;;;;6.40;5.78;;;15.20;95.80;;;;;;5054197;28;20177;-71
2023/05/16 08:34:42;;;;;;;7.05;5.38;;;15.10;95.70;;;;;;5053448;28;20264;-71
2023/05/16 08:37:08;;;;;;;6.72;5.75;;;14.90;96.20;;;;;;5054802;28;20686;-71
2023/05/16 08:39:33;;;;;;;5.88;5.28;;;15.30;96.20;;;;;;5053652;28;20269;-71
2023/05/16 08:41:59;;;;;;;6.65;5.40;;;15.40;96.00;;;;;;5054343;28;20201;-71
2023/05/16 08:44:25;;;;;;;5.22;4.80;;;15.60;95.40;;;;;;5052889;28;20205;-71
2023/05/16 08:46:52;;;;;;;4.80;4.40;;;15.90;94.90;;;;;;5052762;28;20212;-71
2023/05/16 08:49:18;;;;;;;5.07;4.10;;;16.10;94.10;;;;;;5052744;28;20178;-71
2023/05/16 08:51:46;;;;;;;3.95;3.65;;;16.20;93.90;;;;;;5052739;28;20206;-71
2023/05/16 08:54:13;;;;;;;4.05;3.40;;;16.20;94.00;;;;;;5053212;28;20178;-71
2023/05/16 08:56:40;;;;;;;3.92;3.00;;;16.20;93.10;;;;;;5054062;28;20193;-71
2023/05/16 08:59:06;;;;;;;4.65;2.63;;;15.80;93.50;;;;;;5054141;28;20170;-71
2023/05/16 09:01:33;;;;;;;4.05;2.13;;;15.70;93.70;;;;;;5052573;28;20178;-71
2023/05/16 09:03:59;;;;;;;3.28;2.20;;;15.00;94.20;;;;;;5052533;28;20183;-71
2023/05/16 09:06:26;;;;;;;2.70;2.50;;;14.90;94.90;;;;;;5052352;28;20241;-71
2023/05/16 09:08:52;;;;;;;2.90;2.70;;;14.80;94.90;;;;;;5052496;28;20710;-71
2023/05/16 09:11:18;;;;;;;2.67;2.47;;;14.80;95.00;;;;;;5053579;28;20209;-71
2023/05/16 09:13:44;;;;;;;2.25;2.15;;;15.00;94.80;;;;;;5052436;28;20178;-71
2023/05/16 09:16:18;;;;;;;2.22;2.10;;;15.50;94.40;;;;;;5053694;28;20665;-71
2023/05/16 09:18:45;;;;;;;2.08;1.98;;;16.00;93.20;;;;;;5053142;28;20177;-71
2023/05/16 09:21:12;;;;;;;3.08;2.25;;;16.30;92.30;;;;;;5052389;28;20245;-71
2023/05/16 09:23:38;;;;;;;5.25;2.22;;;16.20;91.90;;;;;;5052268;28;20556;-71
2023/05/16 09:26:07;;;;;;;4.53;2.22;;;16.30;91.60;;;;;;5052505;28;20213;-71
2023/05/16 09:28:33;;;;;;;2.63;2.33;;;16.10;91.30;;;;;;5052256;28;20170;-71
2023/05/16 09:30:58;;;;;;;3.95;2.78;;;16.00;91.50;;;;;;5052055;28;20288;-71
2023/05/16 09:33:28;;;;;;;3.25;2.63;;;15.80;91.50;;;;;;5052068;28;20327;-71
2023/05/16 09:35:58;;;;;;;2.75;2.55;;;15.90;91.50;;;;;;5053303;28;20194;-71
2023/05/16 09:38:26;;;;;;;2.50;2.30;;;16.20;91.30;;;;;;5052503;28;20190;-71
2023/05/16 09:40:55;;;;;;;4.65;2.60;;;16.40;91.20;;;;;;5052138;28;20332;-71
2023/05/16 09:43:23;;;;;;;2.45;2.33;;;16.60;90.60;;;;;;5052861;28;20269;-71
2023/05/16 09:45:49;;;;;;;2.80;2.60;;;17.00;89.80;;;;;;5051963;28;20287;-71
2023/05/16 09:48:16;;;;;;;3.47;2.72;;;16.80;88.50;;;;;;5053473;28;20213;-71
2023/05/16 09:50:48;;;;;;;3.95;2.30;;;16.80;89.30;;;;;;5051941;28;20202;-71
2023/05/16 09:53:14;;;;;;;2.60;2.40;;;16.80;89.20;;;;;;5052871;28;20170;-71
2023/05/16 09:55:39;;;;;;;2.60;2.40;;;16.60;90.00;;;;;;5052232;28;20196;-71
2023/05/16 09:58:05;;;;;;;2.75;2.40;;;16.70;89.40;;;;;;5053055;28;20170;-71
2023/05/16 10:00:32;;;;;;;2.42;2.22;;;16.60;87.70;;;;;;5051952;28;20615;-71
2023/05/16 10:02:59;;;;;;;3.72;2.22;;;16.50;89.30;;;;;;5052151;28;20189;-71
2023/05/16 10:05:28;;;;;;;3.88;2.22;;;16.20;89.40;;;;;;5052596;28;20183;-71
2023/05/16 10:07:55;;;;;;;2.17;2.08;;;16.10;90.00;;;;;;5053236;28;20186;-71
2023/05/16 10:10:21;;;;;;;3.42;2.03;;;15.80;90.30;;;;;;5052332;28;20206;-71
2023/05/16 10:12:48;;;;;;;2.40;2.20;;;15.70;90.40;;;;;;5052569;28;20202;-71
2023/05/16 10:15:15;;;;;;;2.10;2.00;;;15.40;90.80;;;;;;5051690;28;20720;-71
2023/05/16 10:17:44;;;;;;;2.42;2.17;;;15.30;90.90;;;;;;5051697;28;20546;-71
2023/05/16 10:20:11;;;;;;;1.98;1.88;;;15.20;91.40;;;;;;5051698;28;20185;-71
2023/05/16 10:22:42;;;;;;;2.20;2.10;;;14.90;91.60;;;;;;5052444;28;20182;-71
2023/05/16 10:25:14;;;;;;;3.90;2.80;;;14.60;92.60;;;;;;5051736;28;20175;-71
2023/05/16 10:27:41;;;;;;;4.93;2.60;;;14.40;92.90;;;;;;5054524;28;20273;-71
2023/05/16 10:30:08;;;;;;;2.83;2.63;;;14.00;93.10;;;;;;5056135;28;20213;-71
2023/05/16 10:32:35;;;;;;;3.30;2.70;;;13.80;93.60;;;;;;5055462;28;20668;-71
2023/05/16 10:35:02;;;;;;;4.03;2.90;;;13.50;93.90;;;;;;5056540;28;20170;-71
2023/05/16 10:37:32;;;;;;;2.97;2.47;;;13.60;94.30;;;;;;5056494;28;20193;-71
2023/05/16 10:40:04;;;;;;;3.30;2.50;;;13.70;94.20;;;;;;5056156;28;20182;-71
2023/05/16 10:42:31;;;;;;;2.50;2.35;;;13.80;94.10;;;;;;5056207;28;20181;-71
2023/05/16 10:45:14;;;;;;;2.28;2.08;;;13.90;93.90;;;;;;5055164;28;20750;-71
2023/05/16 10:47:40;;;;;;;6.65;2.35;;;14.00;93.80;;;;;;5055881;28;20206;-71
2023/05/16 10:50:06;;;;;;;5.40;2.35;;;14.10;93.40;;;;;;5055278;28;20206;-71
2023/05/16 10:52:33;;;;;;;4.10;2.22;;;14.00;93.20;;;;;;5055089;28;20197;-71
2023/05/16 10:55:02;;;;;;;4.03;1.95;;;14.10;93.20;;;;;;5054993;28;20260;-71
2023/05/16 10:57:31;;;;;;;3.63;2.00;;;14.40;92.60;;;;;;5055737;28;20195;-71
2023/05/16 11:00:00;;;;;;;3.83;2.00;;;15.00;92.10;;;;;;5056145;28;20174;-71
2023/05/16 11:02:33;;;;;;;3.05;1.83;;;15.60;91.40;;;;;;5054869;28;20193;-71
2023/05/16 11:05:00;;;;;;;4.40;2.00;;;16.20;89.50;;;;;;5056220;28;20230;-71
2023/05/16 11:07:32;;;;;;;2.50;1.98;;;16.50;86.80;;;;;;5054935;28;20248;-71
2023/05/16 11:10:06;;;;;;;6.13;2.17;;;16.60;84.30;;;;;;5055939;28;20154;-71
2023/05/16 11:12:44;;;;;;;2.55;1.65;;;16.40;84.20;;;;;;5054698;28;20165;-71
2023/05/16 11:15:21;;;;;;;4.30;1.92;;;16.60;84.70;;;;;;5055831;28;20170;-71
2023/05/16 11:17:47;;;;;;;3.95;1.90;;;16.90;83.90;;;;;;5054514;28;20176;-71
2023/05/16 11:20:33;;;;;;;2.92;2.10;;;16.50;83.50;;;;;;5054386;28;20178;-71
2023/05/16 11:23:15;;;;;;;7.18;1.80;;;16.60;83.80;;;;;;5054408;28;20200;-71
2023/05/16 11:25:42;;;;;;;6.00;1.95;;;16.60;82.40;;;;;;5055851;28;20227;-71
2023/05/16 11:28:10;;;;;;;7.32;2.30;;;16.40;82.80;;;;;;5054293;28;20643;-71
2023/05/16 11:30:40;;;;;;;4.38;1.73;;;16.60;82.30;;;;;;5054989;28;20201;-71
2023/05/16 11:33:06;;;;;;;2.63;1.85;;;16.70;82.80;;;;;;5054540;28;20687;-71
2023/05/16 11:35:32;;;;;;;3.33;1.90;;;16.90;82.80;;;;;;5054114;28;20175;-72
2023/05/16 11:37:58;;;;;;;2.90;1.75;;;17.00;82.20;;;;;;5054158;28;20186;-72
2023/05/16 11:40:23;;;;;;;3.92;2.00;;;17.10;81.60;;;;;;5052985;28;20205;-72
2023/05/16 11:42:49;;;;;;;2.58;1.83;;;17.10;81.70;;;;;;5054486;28;20216;-71
2023/05/16 11:45:21;;;;;;;4.47;2.15;;;17.00;82.70;;;;;;5055865;28;20189;-71
2023/05/16 11:47:47;;;;;;;2.85;2.00;;;16.70;83.50;;;;;;5057326;28;20198;-71
2023/05/16 11:50:18;;;;;;;3.38;2.13;;;16.50;84.60;;;;;;5058066;28;20187;-71
2023/05/16 11:52:53;;;;;;;4.57;2.00;;;16.30;84.30;;;;;;5058023;28;20165;-71
2023/05/16 11:55:25;;;;;;;5.05;2.13;;;16.20;84.00;;;;;;5057930;28;20162;-71
2023/05/16 11:57:51;;;;;;;3.25;1.85;;;16.30;84.60;;;;;;5059879;28;20269;-71
2023/05/16 12:00:18;;;;;;;7.20;2.00;;;16.00;82.90;;;;;;5058513;28;20209;-73
2023/05/16 12:02:48;;;;;;;2.92;1.85;;;16.00;84.50;;;;;;5058607;28;20239;-73
2023/05/16 12:05:15;;;;;;;4.03;1.98;;;16.30;82.90;;;;;;5058059;28;20185;-72
2023/05/16 12:07:45;;;;;;;3.17;2.05;;;16.10;82.10;;;;;;5057215;28;20198;-73
2023/05/16 12:10:13;;;;;;;7.20;1.95;;;16.30;81.90;;;;;;5057715;28;20198;-72
2023/05/16 12:12:40;;;;;;;6.10;2.53;;;16.60;81.50;;;;;;5057996;28;20194;-73
2023/05/16 12:15:07;;;;;;;2.53;1.85;;;16.80;78.60;;;;;;5057774;28;20231;-73
2023/05/16 12:17:34;;;;;;;7.47;2.35;;;16.70;79.60;;;;;;5058208;28;20190;-73
2023/05/16 12:20:01;;;;;;;6.30;2.30;;;16.50;80.30;;;;;;5057443;28;20174;-73
2023/05/16 12:22:26;;;;;;;5.95;2.35;;;16.40;80.20;;;;;;5057498;28;20174;-73
2023/05/16 12:24:52;;;;;;;6.40;2.33;;;16.10;80.40;;;;;;5057663;28;20177;-73
2023/05/16 12:27:22;;;;;;;6.28;1.92;;;15.90;81.30;;;;;;5056985;28;20198;-72
2023/05/16 12:29:48;;;;;;;8.60;2.55;;;15.90;81.70;;;;;;5057525;28;20170;-72
2023/05/16 12:32:18;;;;;;;5.10;2.38;;;15.90;81.60;;;;;;5057861;28;20182;-72
2023/05/16 12:34:52;;;;;;;4.55;1.83;;;16.30;81.40;;;;;;5057294;28;20265;-72
2023/05/16 12:37:19;;;;;;;5.00;2.17;;;16.70;80.90;;;;;;5056903;28;20197;-72
2023/05/16 12:39:46;;;;;;;4.82;2.53;;;17.00;80.40;;;;;;5056889;28;20182;-72
2023/05/16 12:42:13;;;;;;;5.57;2.35;;;17.30;79.30;;;;;;5059004;28;20159;-72
2023/05/16 12:44:39;;;;;;;5.97;2.15;;;17.50;78.20;;;;;;5056955;28;20174;-72
2023/05/16 12:47:11;;;;;;;5.80;2.10;;;17.60;77.00;;;;;;5056507;28;20201;-72
2023/05/16 12:49:43;;;;;;;6.70;2.75;;;17.60;75.70;;;;;;5057823;28;20166;-72
2023/05/16 12:52:17;;;;;;;6.05;2.10;;;17.30;76.80;;;;;;5058085;28;20248;-72
2023/05/16 12:54:43;;;;;;;3.88;2.15;;;17.40;77.90;;;;;;5057238;28;20166;-72
2023/05/16 12:57:09;;;;;;;5.47;2.15;;;17.20;75.40;;;;;;5056730;28;20194;-72
2023/05/16 12:59:35;;;;;;;5.03;2.08;;;17.10;73.70;;;;;;5057647;28;20604;-72
2023/05/16 13:02:00;;;;;;;6.35;2.45;;;17.50;73.30;;;;;;5056225;28;20212;-72
2023/05/16 13:04:28;;;;;;;9.77;2.20;;;17.70;71.90;;;;;;5056141;28;20203;-72
2023/05/16 13:07:00;;;;;;;8.93;2.40;;;18.20;72.30;;;;;;5056775;28;20209;-72
2023/05/16 13:09:26;;;;;;;5.93;2.50;;;18.20;70.30;;;;;;5057353;28;20220;-72
2023/05/16 13:11:52;;;;;;;8.70;2.53;;;18.40;69.80;;;;;;5056389;28;20210;-72
2023/05/16 13:14:54;;;;;;;6.55;2.25;;;18.50;68.50;;;;;;5055870;28;20178;-71
2023/05/16 13:17:20;;;;;;;7.35;2.42;;;18.20;68.40;;;;;;5052705;28;20292;-71
2023/05/16 13:19:45;;;;;;;6.10;2.28;;;17.80;69.00;;;;;;5052432;28;20216;-71
2023/05/16 13:22:11;;;;;;;9.77;3.67;;;17.80;70.00;;;;;;5053747;28;20204;-71
2023/05/16 13:24:37;;;;;;;5.95;2.80;;;17.70;69.60;;;;;;5052232;28;20182;-71
2023/05/16 13:27:02;;;;;;;7.38;2.05;;;17.70;68.60;;;;;;5052721;28;20194;-71
2023/05/16 13:29:28;;;;;;;3.72;1.70;;;17.40;68.00;;;;;;5053000;28;20182;-71
2023/05/16 13:31:54;;;;;;;3.40;1.88;;;17.50;67.00;;;;;;5052069;28;20206;-71
2023/05/16 13:34:19;;;;;;;5.15;2.10;;;17.30;65.60;;;;;;5052175;28;20178;-71
2023/05/16 13:36:46;;;;;;;5.35;2.33;;;17.10;66.50;;;;;;5053526;28;20200;-71
2023/05/16 13:39:12;;;;;;;7.72;2.33;;;17.00;67.20;;;;;;5053593;28;20189;-71
2023/05/16 13:41:39;;;;;;;6.60;2.10;;;16.90;67.10;;;;;;5052500;28;20198;-71
2023/05/16 13:44:05;;;;;;;7.18;2.40;;;17.20;67.50;;;;;;5052399;28;20290;-71
2023/05/16 13:49:44;;;;;;;4.80;2.45;;;17.40;66.30;;;;;;5053505;28;20201;-71
2023/05/16 13:52:10;;;;;;;9.43;2.47;;;17.40;65.30;;;;;;5051860;28;20311;-71
2023/05/16 13:54:35;;;;;;;3.80;1.67;;;16.70;63.80;;;;;;5051942;28;20293;-71
2023/05/16 13:57:02;;;;;;;4.50;1.90;;;16.80;67.90;;;;;;5051858;28;20195;-71
2023/05/16 14:02:56;;;;;;;7.28;1.92;;;16.80;65.10;;;;;;5055839;28;20197;-71
2023/05/16 14:05:35;;;;;;;6.38;1.75;;;16.80;66.80;;;;;;5055956;28;20174;-71
2023/05/16 14:08:01;;;;;;;5.50;1.92;;;16.70;65.30;;;;;;5055970;28;20170;-71
2023/05/16 14:11:05;;;;;;;4.07;1.77;;;16.70;65.70;;;;;;5057249;28;20286;-71
2023/05/16 14:14:01;;;;;;;6.47;1.92;;;16.70;64.90;;;;;;5057380;28;20182;-71
2023/05/16 14:16:28;;;;;;;8.82;2.30;;;16.70;63.50;;;;;;5055599;28;20194;-71
2023/05/16 14:18:53;;;;;;;5.85;1.60;;;16.50;62.80;;;;;;5057155;28;20531;-71
2023/05/16 14:21:41;;;;;;;3.33;1.70;;;16.40;63.20;;;;;;5056748;28;20185;-71
2023/05/16 14:24:07;;;;;;;4.05;1.83;;;16.30;63.70;;;;;;5055847;28;20174;-71
2023/05/16 14:26:32;;;;;;;5.60;1.85;;;16.30;64.70;;;;;;5055412;28;20209;-72
2023/05/16 14:28:58;;;;;;;6.15;2.10;;;16.30;63.60;;;;;;5055812;28;20207;-71
2023/05/16 14:31:23;;;;;;;13.38;1.98;;;16.30;62.20;;;;;;5055345;28;20218;-71
2023/05/16 14:33:49;;;;;;;8.52;1.83;;;16.30;61.90;;;;;;5056942;28;20206;-71
2023/05/16 14:36:15;;;;;;;10.38;1.85;;;16.10;62.40;;;;;;5055335;28;20225;-71
2023/05/16 14:38:41;;;;;;;4.32;1.88;;;16.00;62.80;;;;;;5055301;28;20174;-71
2023/05/16 14:41:06;;;;;;;4.40;1.90;;;16.00;63.10;;;;;;5055189;28;20213;-71
2023/05/16 14:43:32;;;;;;;7.95;2.10;;;15.90;62.50;;;;;;5055154;28;20639;-71
2023/05/16 14:46:04;;;;;;;7.25;1.85;;;15.90;62.40;;;;;;5055057;28;20246;-71
2023/05/16 14:48:30;;;;;;;8.95;2.00;;;15.80;64.20;;;;;;5055172;28;20171;-71
2023/05/16 14:50:56;;;;;;;16.85;3.25;;;15.80;64.40;;;;;;5055795;28;20202;-71
2023/05/16 14:53:21;;;;;;;6.70;1.75;;;15.80;63.50;;;;;;5057385;28;20524;-71
2023/05/16 14:55:47;;;;;;;3.90;1.88;;;15.60;64.30;;;;;;5055074;28;20533;-71
2023/05/16 14:58:13;;;;;;;4.90;1.65;;;15.50;62.80;;;;;;5055067;28;20174;-71
2023/05/16 15:00:39;;;;;;;3.90;1.70;;;15.50;62.10;;;;;;5054884;28;20528;-71
2023/05/16 15:03:04;;;;;;;4.93;1.58;;;15.50;62.30;;;;;;5054960;28;20208;-71
2023/05/16 15:05:30;;;;;;;6.43;1.85;;;15.40;62.00;;;;;;5051836;28;20175;-71
2023/05/16 15:07:57;;;;;;;3.75;1.48;;;15.40;61.90;;;;;;5049162;28;20186;-71
2023/05/16 15:10:25;;;;;;;7.13;1.98;;;15.50;63.10;;;;;;5056160;28;20612;-71
2023/05/16 15:12:51;;;;;;;4.07;1.60;;;15.60;61.30;;;;;;5055039;28;20166;-71
2023/05/16 15:15:17;;;;;;;7.45;1.80;;;15.70;62.70;;;;;;5054589;28;20517;-71
2023/05/16 15:17:42;;;;;;;6.75;1.80;;;15.80;62.90;;;;;;5054450;28;20200;-71
2023/05/16 15:20:10;;;;;;;4.75;1.55;;;15.80;61.30;;;;;;5055590;28;20265;-71
2023/05/16 15:22:40;;;;;;;4.07;1.70;;;15.80;61.40;;;;;;5054423;28;20167;-70
2023/05/16 15:25:06;;;;;;;5.15;1.80;;;15.80;61.50;;;;;;5055581;28;20224;-71
2023/05/16 15:27:32;;;;;;;6.22;1.60;;;15.60;59.20;;;;;;5053796;28;20190;-70
2023/05/16 15:29:58;;;;;;;3.60;1.30;;;15.60;59.80;;;;;;5034841;28;20179;-70
2023/05/16 15:32:24;;;;;;;5.78;1.98;;;15.70;59.80;;;;;;5034431;28;20660;-70
2023/05/16 15:34:50;;;;;;;6.47;1.90;;;15.80;60.00;;;;;;5034325;28;20605;-70
2023/05/16 15:37:16;;;;;;;5.93;1.83;;;15.80;59.30;;;;;;5034467;28;20233;-70
2023/05/16 15:39:42;;;;;;;8.30;1.70;;;15.70;59.70;;;;;;5034200;28;20175;-70
2023/05/16 15:42:07;;;;;;;4.43;1.55;;;15.80;58.60;;;;;;5035478;28;20249;-70
2023/05/16 15:44:33;;;;;;;2.30;1.30;;;15.80;57.50;;;;;;5034151;28;20193;-70
2023/05/16 15:47:00;;;;;;;3.53;1.73;;;15.80;57.10;;;;;;5034546;28;20203;-70
2023/05/16 15:49:26;;;;;;;3.55;2.00;;;15.70;59.20;;;;;;5035271;28;20175;-70
2023/05/16 15:51:52;;;;;;;3.75;1.25;;;15.80;59.00;;;;;;5034406;28;20207;-70
2023/05/16 15:54:18;;;;;;;5.72;1.52;;;15.80;58.40;;;;;;5034144;28;20174;-70
2023/05/16 15:56:44;;;;;;;4.43;1.60;;;15.80;58.60;;;;;;5034418;28;20195;-70
2023/05/16 15:59:09;;;;;;;4.75;1.40;;;15.60;57.40;;;;;;5033995;28;20171;-70
2023/05/16 16:01:35;;;;;;;4.25;1.60;;;15.70;61.50;;;;;;5033843;28;20182;-70
2023/05/16 16:04:00;;;;;;;6.30;1.90;;;15.90;70.10;;;;;;5035174;28;20187;-70
2023/05/16 16:06:26;;;;;;;3.08;1.27;;;16.10;62.50;;;;;;5033968;28;20202;-70
2023/05/16 16:08:52;;;;;;;2.95;1.50;;;16.20;60.00;;;;;;5033634;28;20175;-70
2023/05/16 16:11:22;;;;;;;4.20;1.90;;;16.20;60.60;;;;;;5033579;28;20285;-70
2023/05/16 16:13:48;;;;;;;3.28;1.58;;;15.80;59.20;;;;;;5033933;28;20163;-70
2023/05/16 16:16:14;;;;;;;3.40;1.60;;;15.90;62.10;;;;;;5033857;28;20673;-70
2023/05/16 16:18:40;;;;;;;4.50;1.60;;;15.80;58.50;;;;;;5036253;28;20199;-70
2023/05/16 16:21:06;;;;;;;10.60;1.77;;;15.80;58.50;;;;;;5033805;28;20232;-70
2023/05/16 16:23:32;;;;;;;8.40;2.05;;;15.70;59.40;;;;;;5033381;28;20201;-70
2023/05/16 16:25:57;;;;;;;2.78;1.42;;;15.80;61.00;;;;;;5032847;28;20191;-70
2023/05/16 16:28:23;;;;;;;3.10;1.42;;;15.80;58.90;;;;;;5033655;28;20224;-70
2023/05/16 16:30:49;;;;;;;5.72;1.40;;;15.70;58.50;;;;;;5034649;28;20195;-70
2023/05/16 16:33:15;;;;;;;3.45;1.38;;;15.60;57.70;;;;;;5033478;28;20257;-70
2023/05/16 16:35:41;;;;;;;5.97;1.40;;;15.50;57.80;;;;;;5033097;28;20182;-70
2023/05/16 16:38:07;;;;;;;5.90;1.63;;;15.30;55.90;;;;;;5033157;28;20179;-70
2023/05/16 16:40:33;;;;;;;6.05;1.70;;;15.10;56.50;;;;;;5034571;28;20194;-70
2023/05/16 16:43:00;;;;;;;4.03;1.55;;;15.10;57.20;;;;;;5032990;28;20273;-70
2023/05/16 16:45:25;;;;;;;3.58;1.52;;;15.10;58.50;;;;;;5033321;28;20183;-70
2023/05/16 16:47:51;;;;;;;4.13;1.40;;;15.10;59.00;;;;;;5032866;28;20197;-70
2023/05/16 16:50:17;;;;;;;4.43;1.55;;;15.00;57.70;;;;;;5032821;28;20183;-70
2023/05/16 16:52:42;;;;;;;4.63;1.55;;;14.90;58.10;;;;;;5034378;28;20652;-70
2023/05/16 16:55:08;;;;;;;2.88;1.45;;;14.70;57.80;;;;;;5034029;28;20221;-70
2023/05/16 16:57:34;;;;;;;3.38;1.33;;;14.70;58.90;;;;;;5032701;28;20259;-70
2023/05/16 17:00:00;;;;;;;4.43;1.35;;;14.60;60.20;;;;;;5032796;28;20265;-70
2023/05/16 17:02:26;;;;;;;3.55;1.40;;;14.60;61.20;;;;;;5032666;28;20267;-70
2023/05/16 17:04:52;;;;;;;5.50;1.75;;;14.50;60.50;;;;;;5034522;28;20503;-70
2023/05/16 17:07:18;;;;;;;3.03;1.40;;;14.40;61.00;;;;;;5033128;28;20206;-70
2023/05/16 17:09:44;;;;;;;3.53;1.50;;;14.30;60.40;;;;;;5032943;28;20179;-70
2023/05/16 17:12:17;;;;;;;2.92;1.33;;;14.30;59.70;;;;;;5033316;28;20202;-70
2023/05/16 17:14:47;;;;;;;4.05;1.52;;;14.20;57.20;;;;;;5032516;28;20163;-70
2023/05/16 17:17:17;;;;;;;5.05;1.35;;;14.10;56.80;;;;;;5033298;28;20226;-70
2023/05/16 17:19:44;;;;;;;3.17;1.30;;;14.10;56.40;;;;;;5032472;28;20182;-70
2023/05/16 17:22:10;;;;;;;3.85;1.33;;;14.10;57.20;;;;;;5032389;28;20186;-70
2023/05/16 17:24:36;;;;;;;2.92;1.27;;;14.00;57.30;;;;;;5032734;28;20216;-70
2023/05/16 17:27:02;;;;;;;2.67;1.38;;;13.90;55.60;;;;;;5033802;28;20665;-70
2023/05/16 17:29:27;;;;;;;2.45;1.50;;;13.80;56.40;;;;;;5033230;28;20167;-70
2023/05/16 17:31:53;;;;;;;3.45;1.33;;;13.70;56.20;;;;;;5032900;28;20202;-70
2023/05/16 17:34:18;;;;;;;5.38;1.40;;;13.70;57.40;;;;;;5032614;28;20175;-70
2023/05/16 17:36:44;;;;;;;5.05;1.35;;;13.70;58.60;;;;;;5032344;28;20199;-70
2023/05/16 17:39:10;;;;;;;5.90;1.70;;;13.70;59.00;;;;;;5033514;28;20167;-70
2023/05/16 17:41:36;;;;;;;3.85;1.20;;;13.60;58.80;;;;;;5032485;28;20211;-70
2023/05/16 17:44:02;;;;;;;4.20;1.40;;;13.60;59.70;;;;;;5032109;28;20229;-70
2023/05/16 17:46:28;;;;;;;2.88;1.52;;;13.50;60.20;;;;;;5032162;28;20194;-70
2023/05/16 17:48:53;;;;;;;3.80;1.42;;;13.40;60.40;;;;;;5032198;28;20167;-70
2023/05/16 17:51:19;;;;;;;4.22;1.35;;;13.40;61.20;;;;;;5032843;28;20202;-70
2023/05/16 17:53:44;;;;;;;4.63;1.42;;;13.30;61.10;;;;;;5032045;28;20175;-70
2023/05/16 17:56:10;;;;;;;6.00;1.80;;;13.20;61.90;;;;;;5033300;28;20195;-71
2023/05/16 17:58:35;;;;;;;4.15;1.52;;;13.10;62.30;;;;;;5032777;28;20178;-71
2023/05/16 18:01:05;;;;;;;3.30;1.23;;;13.00;62.80;;;;;;5032346;28;20190;-71
2023/05/16 18:03:31;;;;;;;6.15;1.55;;;12.90;64.00;;;;;;5033154;28;20710;-71
2023/05/16 18:05:56;;;;;;;2.17;1.40;;;12.90;63.50;;;;;;5033106;28;20203;-71
2023/05/16 18:08:22;;;;;;;3.83;1.60;;;12.80;63.90;;;;;;5032174;28;20190;-71
2023/05/16 18:10:48;;;;;;;4.80;1.58;;;12.80;64.40;;;;;;5031962;28;20214;-71
2023/05/16 18:13:14;;;;;;;4.53;1.48;;;12.70;64.20;;;;;;5031961;28;20207;-71
2023/05/16 18:15:40;;;;;;;2.40;1.63;;;12.60;65.20;;;;;;5034147;28;20583;-71
2023/05/16 18:18:06;;;;;;;3.90;1.67;;;12.50;66.10;;;;;;5033337;28;20186;-71
2023/05/16 18:20:32;;;;;;;4.80;1.60;;;12.50;67.10;;;;;;5031787;28;20606;-71
2023/05/16 18:22:57;;;;;;;8.07;2.10;;;12.40;67.70;;;;;;5031737;28;20178;-71
2023/05/16 18:25:23;;;;;;;4.05;1.55;;;12.30;69.80;;;;;;5032473;28;20197;-71
2023/05/16 18:27:49;;;;;;;4.65;1.52;;;12.30;70.50;;;;;;5039275;28;20185;-71
2023/05/16 18:30:15;;;;;;;3.88;1.50;;;12.10;70.50;;;;;;5045991;28;20179;-71